sensor_id;sensor_type;location;lat;lon;timestamp;pressure;altitude;pressure_sealevel;temperature;humidity
71666;BME280;59503;53.486;10.196;2023-05-09T00:01:10;102145.16;;;10.72;56.20
71666;BME280;59503;53.486;10.196;2023-05-09T00:03:35;102139.38;;;10.74;56.43
71666;BME280;59503;53.486;10.196;2023-05-09T00:06:01;102143.22;;;10.73;56.21
71666;BME280;59503;53.486;10.196;2023-05-09T00:08:26;102140.38;;;10.69;56.62
71666;BME280;59503;53.486;10.196;2023-05-09T00:10:52;102142.63;;;10.67;56.72
71666;BME280;59503;53.486;10.196;2023-05-09T00:13:18;102137.19;;;10.67;56.55
71666;BME280;59503;53.486;10.196;2023-05-09T00:15:43;102140.09;;;10.62;56.87
71666;BME280;59503;53.486;10.196;2023-05-09T00:18:09;102131.81;;;10.50;57.42
71666;BME280;59503;53.486;10.196;2023-05-09T00:20:35;102138.44;;;10.41;57.87
71666;BME280;59503;53.486;10.196;2023-05-09T00:23:00;102148.97;;;10.42;58.27
71666;BME280;59503;53.486;10.196;2023-05-09T00:25:25;102145.81;;;10.32;58.67
71666;BME280;59503;53.486;10.196;2023-05-09T00:27:51;102154.63;;;10.29;59.15
71666;BME280;59503;53.486;10.196;2023-05-09T00:30:16;102148.28;;;10.16;59.99
71666;BME280;59503;53.486;10.196;2023-05-09T00:32:41;102142.84;;;9.99;60.41
71666;BME280;59503;53.486;10.196;2023-05-09T00:35:07;102144.91;;;10.02;60.82
71666;BME280;59503;53.486;10.196;2023-05-09T00:37:34;102136.13;;;9.96;61.65
71666;BME280;59503;53.486;10.196;2023-05-09T00:39:59;102126.91;;;9.89;61.42
71666;BME280;59503;53.486;10.196;2023-05-09T00:42:24;102126.41;;;9.95;61.86
71666;BME280;59503;53.486;10.196;2023-05-09T00:44:50;102123.53;;;9.92;61.92
71666;BME280;59503;53.486;10.196;2023-05-09T00:47:15;102112.50;;;9.88;62.36
71666;BME280;59503;53.486;10.196;2023-05-09T00:49:40;102107.25;;;9.92;61.90
71666;BME280;59503;53.486;10.196;2023-05-09T00:52:06;102101.16;;;9.95;62.08
71666;BME280;59503;53.486;10.196;2023-05-09T00:54:31;102108.66;;;9.98;61.62
71666;BME280;59503;53.486;10.196;2023-05-09T00:56:56;102104.69;;;9.95;61.92
71666;BME280;59503;53.486;10.196;2023-05-09T00:59:22;102098.94;;;9.88;62.28
71666;BME280;59503;53.486;10.196;2023-05-09T01:01:47;102103.56;;;9.88;62.30
71666;BME280;59503;53.486;10.196;2023-05-09T01:04:13;102094.19;;;9.77;63.39
71666;BME280;59503;53.486;10.196;2023-05-09T01:06:49;102091.47;;;9.77;63.32
71666;BME280;59503;53.486;10.196;2023-05-09T01:09:37;102081.41;;;9.69;63.85
71666;BME280;59503;53.486;10.196;2023-05-09T01:31:03;102053.16;;;9.53;64.93
71666;BME280;59503;53.486;10.196;2023-05-09T01:33:32;102057.31;;;9.59;64.57
71666;BME280;59503;53.486;10.196;2023-05-09T01:36:03;102054.13;;;9.57;65.39
71666;BME280;59503;53.486;10.196;2023-05-09T01:38:31;102051.75;;;9.47;65.44
71666;BME280;59503;53.486;10.196;2023-05-09T01:40:57;102049.69;;;9.44;65.93
71666;BME280;59503;53.486;10.196;2023-05-09T01:43:26;102050.47;;;9.44;65.32
71666;BME280;59503;53.486;10.196;2023-05-09T01:45:52;102045.19;;;9.48;65.50
71666;BME280;59503;53.486;10.196;2023-05-09T01:48:21;102051.25;;;9.53;65.44
71666;BME280;59503;53.486;10.196;2023-05-09T01:50:51;102049.34;;;9.54;65.68
71666;BME280;59503;53.486;10.196;2023-05-09T01:53:18;102048.88;;;9.52;65.73
71666;BME280;59503;53.486;10.196;2023-05-09T01:55:45;102058.59;;;9.53;66.00
71666;BME280;59503;53.486;10.196;2023-05-09T01:58:11;102060.88;;;9.51;66.13
71666;BME280;59503;53.486;10.196;2023-05-09T02:00:37;102057.50;;;9.45;66.03
71666;BME280;59503;53.486;10.196;2023-05-09T02:03:03;102067.72;;;9.40;67.59
71666;BME280;59503;53.486;10.196;2023-05-09T02:05:29;102048.25;;;9.38;67.33
71666;BME280;59503;53.486;10.196;2023-05-09T02:07:56;102058.63;;;9.36;67.51
71666;BME280;59503;53.486;10.196;2023-05-09T02:10:23;102042.50;;;9.31;68.40
71666;BME280;59503;53.486;10.196;2023-05-09T02:12:50;102054.50;;;9.30;67.90
71666;BME280;59503;53.486;10.196;2023-05-09T02:15:15;102045.72;;;9.24;67.77
71666;BME280;59503;53.486;10.196;2023-05-09T02:17:40;102043.97;;;9.28;67.91
71666;BME280;59503;53.486;10.196;2023-05-09T02:20:07;102031.81;;;9.34;67.75
71666;BME280;59503;53.486;10.196;2023-05-09T02:22:34;102026.72;;;9.33;68.19
71666;BME280;59503;53.486;10.196;2023-05-09T02:25:01;102029.91;;;9.35;68.18
71666;BME280;59503;53.486;10.196;2023-05-09T02:27:29;102033.75;;;9.34;68.65
71666;BME280;59503;53.486;10.196;2023-05-09T02:29:56;102033.59;;;9.30;68.45
71666;BME280;59503;53.486;10.196;2023-05-09T02:32:28;102026.56;;;9.29;69.32
71666;BME280;59503;53.486;10.196;2023-05-09T02:34:56;102012.69;;;9.22;69.08
71666;BME280;59503;53.486;10.196;2023-05-09T02:37:22;102016.19;;;9.23;70.00
71666;BME280;59503;53.486;10.196;2023-05-09T02:39:48;102027.53;;;9.25;69.51
71666;BME280;59503;53.486;10.196;2023-05-09T02:42:25;102026.44;;;9.17;70.52
71666;BME280;59503;53.486;10.196;2023-05-09T02:44:51;102030.25;;;9.16;70.09
71666;BME280;59503;53.486;10.196;2023-05-09T02:47:16;102020.53;;;9.07;71.49
71666;BME280;59503;53.486;10.196;2023-05-09T02:49:42;102024.50;;;9.09;70.88
71666;BME280;59503;53.486;10.196;2023-05-09T02:52:07;102024.66;;;9.04;71.39
71666;BME280;59503;53.486;10.196;2023-05-09T02:54:32;102014.78;;;9.00;72.41
71666;BME280;59503;53.486;10.196;2023-05-09T02:56:58;102003.13;;;8.91;71.96
71666;BME280;59503;53.486;10.196;2023-05-09T02:59:24;102015.75;;;8.95;72.37
71666;BME280;59503;53.486;10.196;2023-05-09T03:01:49;102022.59;;;8.93;72.44
71666;BME280;59503;53.486;10.196;2023-05-09T03:04:18;102011.41;;;8.86;72.91
71666;BME280;59503;53.486;10.196;2023-05-09T03:06:43;102011.91;;;8.79;73.17
71666;BME280;59503;53.486;10.196;2023-05-09T03:09:09;102006.31;;;8.75;73.74
71666;BME280;59503;53.486;10.196;2023-05-09T03:11:35;102007.13;;;8.67;74.17
71666;BME280;59503;53.486;10.196;2023-05-09T03:14:03;102011.44;;;8.60;75.05
71666;BME280;59503;53.486;10.196;2023-05-09T03:16:29;102001.50;;;8.55;75.16
71666;BME280;59503;53.486;10.196;2023-05-09T03:18:55;102005.50;;;8.49;75.77
71666;BME280;59503;53.486;10.196;2023-05-09T03:21:20;102008.69;;;8.43;76.09
71666;BME280;59503;53.486;10.196;2023-05-09T03:23:45;101995.28;;;8.38;76.98
71666;BME280;59503;53.486;10.196;2023-05-09T03:26:10;101998.16;;;8.33;77.38
71666;BME280;59503;53.486;10.196;2023-05-09T03:28:37;101995.09;;;8.26;77.75
71666;BME280;59503;53.486;10.196;2023-05-09T03:31:02;102002.41;;;8.25;78.04
71666;BME280;59503;53.486;10.196;2023-05-09T03:33:27;101995.03;;;8.17;78.80
71666;BME280;59503;53.486;10.196;2023-05-09T03:35:53;101991.84;;;8.15;79.89
71666;BME280;59503;53.486;10.196;2023-05-09T03:38:18;101991.06;;;8.15;80.17
71666;BME280;59503;53.486;10.196;2023-05-09T03:40:43;101981.16;;;8.10;80.53
71666;BME280;59503;53.486;10.196;2023-05-09T03:43:09;101982.59;;;8.08;80.53
71666;BME280;59503;53.486;10.196;2023-05-09T03:45:34;101979.91;;;8.08;81.25
71666;BME280;59503;53.486;10.196;2023-05-09T03:48:00;101970.31;;;8.02;81.36
71666;BME280;59503;53.486;10.196;2023-05-09T03:50:27;101982.75;;;8.03;81.95
71666;BME280;59503;53.486;10.196;2023-05-09T03:52:53;101970.94;;;7.99;82.19
71666;BME280;59503;53.486;10.196;2023-05-09T03:55:19;101978.75;;;8.00;82.02
71666;BME280;59503;53.486;10.196;2023-05-09T03:57:44;101976.19;;;7.95;82.21
71666;BME280;59503;53.486;10.196;2023-05-09T04:00:10;101978.75;;;8.00;82.31
71666;BME280;59503;53.486;10.196;2023-05-09T04:02:36;101968.53;;;7.97;82.80
71666;BME280;59503;53.486;10.196;2023-05-09T04:05:01;101970.00;;;8.03;82.98
71666;BME280;59503;53.486;10.196;2023-05-09T04:07:27;101959.16;;;8.03;82.56
71666;BME280;59503;53.486;10.196;2023-05-09T04:09:56;101963.13;;;7.97;83.30
71666;BME280;59503;53.486;10.196;2023-05-09T04:12:21;101973.16;;;7.97;83.30
71666;BME280;59503;53.486;10.196;2023-05-09T04:14:46;101979.38;;;7.97;84.06
71666;BME280;59503;53.486;10.196;2023-05-09T04:17:12;101972.53;;;7.91;84.29
71666;BME280;59503;53.486;10.196;2023-05-09T04:19:37;101974.59;;;7.94;84.74
71666;BME280;59503;53.486;10.196;2023-05-09T04:22:03;101983.63;;;7.90;84.50
71666;BME280;59503;53.486;10.196;2023-05-09T04:24:28;101980.00;;;7.94;85.08
71666;BME280;59503;53.486;10.196;2023-05-09T04:26:53;101971.41;;;7.92;84.73
71666;BME280;59503;53.486;10.196;2023-05-09T04:29:18;101965.34;;;7.95;85.26
71666;BME280;59503;53.486;10.196;2023-05-09T04:31:44;101957.72;;;7.97;84.68
71666;BME280;59503;53.486;10.196;2023-05-09T04:34:09;101970.94;;;7.99;85.28
71666;BME280;59503;53.486;10.196;2023-05-09T04:36:34;101954.69;;;7.99;84.94
71666;BME280;59503;53.486;10.196;2023-05-09T04:39:00;101964.88;;;8.02;84.81
71666;BME280;59503;53.486;10.196;2023-05-09T04:41:25;101966.03;;;8.09;84.80
71666;BME280;59503;53.486;10.196;2023-05-09T04:43:51;101953.75;;;8.12;84.87
71666;BME280;59503;53.486;10.196;2023-05-09T04:46:16;101949.81;;;8.18;85.03
71666;BME280;59503;53.486;10.196;2023-05-09T04:48:42;101944.88;;;8.20;84.80
71666;BME280;59503;53.486;10.196;2023-05-09T04:51:07;101948.25;;;8.25;84.78
71666;BME280;59503;53.486;10.196;2023-05-09T04:53:32;101958.00;;;8.35;84.71
71666;BME280;59503;53.486;10.196;2023-05-09T04:55:58;101947.47;;;8.42;84.12
71666;BME280;59503;53.486;10.196;2023-05-09T04:58:24;101951.00;;;8.51;85.41
71666;BME280;59503;53.486;10.196;2023-05-09T05:00:50;101945.56;;;8.59;84.54
71666;BME280;59503;53.486;10.196;2023-05-09T05:03:16;101940.97;;;8.68;85.09
71666;BME280;59503;53.486;10.196;2023-05-09T05:05:42;101941.09;;;8.80;83.13
71666;BME280;59503;53.486;10.196;2023-05-09T05:08:07;101935.16;;;8.96;81.60
71666;BME280;59503;53.486;10.196;2023-05-09T05:10:32;101933.56;;;9.12;80.93
71666;BME280;59503;53.486;10.196;2023-05-09T05:12:58;101935.44;;;9.20;80.02
71666;BME280;59503;53.486;10.196;2023-05-09T05:15:23;101933.84;;;9.27;79.77
71666;BME280;59503;53.486;10.196;2023-05-09T05:17:48;101931.72;;;9.41;79.43
71666;BME280;59503;53.486;10.196;2023-05-09T05:20:14;101925.78;;;9.48;78.36
71666;BME280;59503;53.486;10.196;2023-05-09T05:22:39;101931.97;;;9.57;78.11
71666;BME280;59503;53.486;10.196;2023-05-09T05:25:05;101913.94;;;9.61;77.32
71666;BME280;59503;53.486;10.196;2023-05-09T05:27:31;101916.88;;;9.76;77.99
71666;BME280;59503;53.486;10.196;2023-05-09T05:29:56;101915.75;;;9.77;77.00
71666;BME280;59503;53.486;10.196;2023-05-09T05:32:21;101903.72;;;9.87;76.05
71666;BME280;59503;53.486;10.196;2023-05-09T05:34:47;101908.97;;;9.92;75.30
71666;BME280;59503;53.486;10.196;2023-05-09T05:37:12;101903.25;;;10.14;74.96
71666;BME280;59503;53.486;10.196;2023-05-09T05:39:37;101904.44;;;10.25;74.28
71666;BME280;59503;53.486;10.196;2023-05-09T05:42:02;101892.84;;;10.37;72.90
71666;BME280;59503;53.486;10.196;2023-05-09T05:44:28;101896.97;;;10.63;74.19
71666;BME280;59503;53.486;10.196;2023-05-09T05:46:53;101885.44;;;10.46;73.09
71666;BME280;59503;53.486;10.196;2023-05-09T05:49:18;101887.88;;;10.59;72.06
71666;BME280;59503;53.486;10.196;2023-05-09T05:51:43;101882.16;;;10.73;71.55
71666;BME280;59503;53.486;10.196;2023-05-09T05:54:09;101900.69;;;10.91;72.41
71666;BME280;59503;53.486;10.196;2023-05-09T05:56:35;101899.72;;;11.08;70.62
71666;BME280;59503;53.486;10.196;2023-05-09T05:59:00;101893.81;;;11.06;71.59
71666;BME280;59503;53.486;10.196;2023-05-09T06:01:25;101890.56;;;11.37;69.34
71666;BME280;59503;53.486;10.196;2023-05-09T06:03:51;101888.78;;;11.65;68.52
71666;BME280;59503;53.486;10.196;2023-05-09T06:06:20;101873.09;;;11.50;68.18
71666;BME280;59503;53.486;10.196;2023-05-09T06:08:46;101881.50;;;11.57;67.93
71666;BME280;59503;53.486;10.196;2023-05-09T06:11:14;101883.59;;;11.72;67.94
71666;BME280;59503;53.486;10.196;2023-05-09T06:13:39;101892.22;;;11.74;67.14
71666;BME280;59503;53.486;10.196;2023-05-09T06:16:05;101889.03;;;11.96;67.13
71666;BME280;59503;53.486;10.196;2023-05-09T06:18:30;101893.28;;;12.21;67.18
71666;BME280;59503;53.486;10.196;2023-05-09T06:20:55;101897.78;;;12.41;66.33
71666;BME280;59503;53.486;10.196;2023-05-09T06:23:21;101889.97;;;12.55;66.29
71666;BME280;59503;53.486;10.196;2023-05-09T06:25:47;101888.47;;;12.70;64.96
71666;BME280;59503;53.486;10.196;2023-05-09T06:28:13;101889.03;;;12.91;63.12
71666;BME280;59503;53.486;10.196;2023-05-09T06:30:38;101884.34;;;13.03;62.91
71666;BME280;59503;53.486;10.196;2023-05-09T06:33:03;101889.34;;;13.01;62.33
71666;BME280;59503;53.486;10.196;2023-05-09T06:35:28;101876.81;;;13.00;62.21
71666;BME280;59503;53.486;10.196;2023-05-09T06:37:54;101882.75;;;13.02;62.21
71666;BME280;59503;53.486;10.196;2023-05-09T06:40:19;101871.13;;;13.21;60.91
71666;BME280;59503;53.486;10.196;2023-05-09T06:42:44;101861.03;;;13.37;60.77
71666;BME280;59503;53.486;10.196;2023-05-09T06:45:10;101874.72;;;13.56;60.20
71666;BME280;59503;53.486;10.196;2023-05-09T06:47:35;101863.13;;;13.59;59.03
71666;BME280;59503;53.486;10.196;2023-05-09T06:50:01;101852.19;;;13.59;59.51
71666;BME280;59503;53.486;10.196;2023-05-09T06:52:26;101848.72;;;13.78;59.55
71666;BME280;59503;53.486;10.196;2023-05-09T06:54:51;101853.75;;;13.60;58.38
71666;BME280;59503;53.486;10.196;2023-05-09T06:57:17;101844.09;;;13.47;59.23
71666;BME280;59503;53.486;10.196;2023-05-09T06:59:42;101842.41;;;13.58;59.72
71666;BME280;59503;53.486;10.196;2023-05-09T07:02:09;101836.44;;;13.87;59.79
71666;BME280;59503;53.486;10.196;2023-05-09T07:04:34;101836.13;;;14.08;59.38
71666;BME280;59503;53.486;10.196;2023-05-09T07:06:59;101843.69;;;14.33;57.52
71666;BME280;59503;53.486;10.196;2023-05-09T07:09:25;101835.06;;;14.31;57.45
71666;BME280;59503;53.486;10.196;2023-05-09T07:11:53;101831.34;;;14.81;58.67
71666;BME280;59503;53.486;10.196;2023-05-09T07:14:19;101826.47;;;14.71;56.29
71666;BME280;59503;53.486;10.196;2023-05-09T07:16:44;101821.19;;;15.04;57.17
71666;BME280;59503;53.486;10.196;2023-05-09T07:19:10;101827.94;;;15.10;55.59
71666;BME280;59503;53.486;10.196;2023-05-09T07:21:36;101824.53;;;15.39;55.75
71666;BME280;59503;53.486;10.196;2023-05-09T07:24:01;101818.44;;;15.75;56.58
71666;BME280;59503;53.486;10.196;2023-05-09T07:26:27;101814.16;;;15.52;53.59
71666;BME280;59503;53.486;10.196;2023-05-09T07:28:53;101814.66;;;15.57;54.00
71666;BME280;59503;53.486;10.196;2023-05-09T07:31:18;101806.81;;;15.59;53.92
71666;BME280;59503;53.486;10.196;2023-05-09T07:33:43;101813.16;;;15.63;53.81
71666;BME280;59503;53.486;10.196;2023-05-09T07:36:08;101809.03;;;15.76;53.33
71666;BME280;59503;53.486;10.196;2023-05-09T07:38:37;101796.66;;;16.19;54.09
71666;BME280;59503;53.486;10.196;2023-05-09T07:41:03;101797.91;;;16.55;50.96
71666;BME280;59503;53.486;10.196;2023-05-09T07:43:28;101788.41;;;16.49;50.02
71666;BME280;59503;53.486;10.196;2023-05-09T07:45:54;101788.47;;;16.23;50.46
71666;BME280;59503;53.486;10.196;2023-05-09T07:48:19;101784.22;;;16.29;50.00
71666;BME280;59503;53.486;10.196;2023-05-09T07:50:44;101778.38;;;16.67;50.51
71666;BME280;59503;53.486;10.196;2023-05-09T07:53:10;101769.22;;;16.52;49.81
71666;BME280;59503;53.486;10.196;2023-05-09T07:55:35;101779.53;;;17.06;50.13
71666;BME280;59503;53.486;10.196;2023-05-09T07:58:00;101777.69;;;17.24;49.21
71666;BME280;59503;53.486;10.196;2023-05-09T08:00:25;101767.31;;;17.47;48.08
71666;BME280;59503;53.486;10.196;2023-05-09T08:02:51;101769.69;;;17.52;47.80
71666;BME280;59503;53.486;10.196;2023-05-09T08:05:17;101761.19;;;17.78;47.84
71666;BME280;59503;53.486;10.196;2023-05-09T08:07:42;101753.41;;;18.01;46.02
71666;BME280;59503;53.486;10.196;2023-05-09T08:10:08;101748.94;;;17.65;46.35
71666;BME280;59503;53.486;10.196;2023-05-09T08:12:33;101745.69;;;17.46;46.68
71666;BME280;59503;53.486;10.196;2023-05-09T08:14:58;101753.75;;;17.89;46.56
71666;BME280;59503;53.486;10.196;2023-05-09T08:17:24;101738.16;;;18.11;45.88
71666;BME280;59503;53.486;10.196;2023-05-09T08:19:49;101734.72;;;18.74;45.97
71666;BME280;59503;53.486;10.196;2023-05-09T08:22:18;101738.66;;;19.43;45.48
71666;BME280;59503;53.486;10.196;2023-05-09T08:24:44;101736.47;;;20.00;43.10
71666;BME280;59503;53.486;10.196;2023-05-09T08:27:10;101728.69;;;19.77;42.53
71666;BME280;59503;53.486;10.196;2023-05-09T08:29:38;101732.31;;;19.53;42.76
71666;BME280;59503;53.486;10.196;2023-05-09T08:32:03;101734.31;;;19.42;42.20
71666;BME280;59503;53.486;10.196;2023-05-09T08:34:28;101726.03;;;19.21;43.71
71666;BME280;59503;53.486;10.196;2023-05-09T08:36:58;101716.03;;;19.87;42.97
71666;BME280;59503;53.486;10.196;2023-05-09T08:39:24;101714.97;;;19.52;41.93
71666;BME280;59503;53.486;10.196;2023-05-09T08:41:49;101717.28;;;19.71;42.10
71666;BME280;59503;53.486;10.196;2023-05-09T08:44:15;101712.50;;;19.83;42.02
71666;BME280;59503;53.486;10.196;2023-05-09T08:46:42;101713.81;;;19.43;42.14
71666;BME280;59503;53.486;10.196;2023-05-09T08:49:08;101710.25;;;19.53;41.79
71666;BME280;59503;53.486;10.196;2023-05-09T08:51:36;101698.31;;;20.53;42.73
71666;BME280;59503;53.486;10.196;2023-05-09T08:54:02;101705.03;;;20.48;40.22
71666;BME280;59503;53.486;10.196;2023-05-09T08:56:29;101705.50;;;20.36;40.11
71666;BME280;59503;53.486;10.196;2023-05-09T08:58:55;101704.56;;;19.95;40.87
71666;BME280;59503;53.486;10.196;2023-05-09T09:01:21;101698.69;;;19.86;40.86
71666;BME280;59503;53.486;10.196;2023-05-09T09:03:47;101701.56;;;19.58;41.21
71666;BME280;59503;53.486;10.196;2023-05-09T09:06:16;101693.69;;;19.56;41.24
71666;BME280;59503;53.486;10.196;2023-05-09T09:08:43;101699.09;;;19.85;40.52
71666;BME280;59503;53.486;10.196;2023-05-09T09:11:12;101681.38;;;20.47;40.79
71666;BME280;59503;53.486;10.196;2023-05-09T09:13:39;101675.69;;;20.68;38.94
71666;BME280;59503;53.486;10.196;2023-05-09T09:16:08;101676.19;;;21.01;38.98
71666;BME280;59503;53.486;10.196;2023-05-09T09:18:35;101683.38;;;21.35;39.26
71666;BME280;59503;53.486;10.196;2023-05-09T09:21:05;101680.41;;;21.49;37.13
71666;BME280;59503;53.486;10.196;2023-05-09T09:23:31;101682.75;;;21.51;37.47
71666;BME280;59503;53.486;10.196;2023-05-09T09:25:58;101676.03;;;21.18;37.36
71666;BME280;59503;53.486;10.196;2023-05-09T09:28:23;101686.34;;;21.14;37.13
71666;BME280;59503;53.486;10.196;2023-05-09T09:30:48;101675.44;;;21.67;36.85
71666;BME280;59503;53.486;10.196;2023-05-09T09:33:18;101664.97;;;21.85;35.55
71666;BME280;59503;53.486;10.196;2023-05-09T09:35:44;101666.91;;;21.88;36.33
71666;BME280;59503;53.486;10.196;2023-05-09T09:38:09;101660.72;;;22.07;35.48
71666;BME280;59503;53.486;10.196;2023-05-09T09:40:35;101659.81;;;22.14;35.40
71666;BME280;59503;53.486;10.196;2023-05-09T09:43:05;101650.31;;;22.38;36.31
71666;BME280;59503;53.486;10.196;2023-05-09T09:45:31;101648.72;;;22.41;34.44
71666;BME280;59503;53.486;10.196;2023-05-09T09:47:56;101652.91;;;23.18;34.92
71666;BME280;59503;53.486;10.196;2023-05-09T09:50:21;101634.66;;;23.95;33.86
71666;BME280;59503;53.486;10.196;2023-05-09T09:52:50;101639.56;;;24.07;32.79
71666;BME280;59503;53.486;10.196;2023-05-09T09:55:17;101638.69;;;23.75;32.57
71666;BME280;59503;53.486;10.196;2023-05-09T09:57:43;101622.78;;;23.40;33.86
71666;BME280;59503;53.486;10.196;2023-05-09T10:00:11;101622.31;;;23.61;32.27
71666;BME280;59503;53.486;10.196;2023-05-09T10:02:56;101625.38;;;23.66;32.03
71666;BME280;59503;53.486;10.196;2023-05-09T10:05:29;101613.94;;;24.00;32.58
71666;BME280;59503;53.486;10.196;2023-05-09T10:07:55;101620.38;;;24.61;32.23
71666;BME280;59503;53.486;10.196;2023-05-09T10:10:25;101621.50;;;24.15;30.56
71666;BME280;59503;53.486;10.196;2023-05-09T10:12:55;101628.31;;;23.40;30.96
71666;BME280;59503;53.486;10.196;2023-05-09T10:15:21;101627.03;;;23.64;33.20
71666;BME280;59503;53.486;10.196;2023-05-09T10:17:55;101611.53;;;23.82;31.50
71666;BME280;59503;53.486;10.196;2023-05-09T10:20:22;101609.19;;;23.45;31.77
71666;BME280;59503;53.486;10.196;2023-05-09T10:22:49;101614.25;;;22.42;32.33
71666;BME280;59503;53.486;10.196;2023-05-09T10:25:19;101601.19;;;22.65;33.20
71666;BME280;59503;53.486;10.196;2023-05-09T10:27:46;101594.69;;;22.75;33.56
71666;BME280;59503;53.486;10.196;2023-05-09T10:30:21;101588.28;;;22.32;32.39
71666;BME280;59503;53.486;10.196;2023-05-09T10:32:53;101587.75;;;22.64;34.25
71666;BME280;59503;53.486;10.196;2023-05-09T10:35:25;101582.13;;;22.90;33.66
71666;BME280;59503;53.486;10.196;2023-05-09T10:37:54;101584.97;;;23.06;32.19
71666;BME280;59503;53.486;10.196;2023-05-09T10:40:21;101570.03;;;23.00;31.86
71666;BME280;59503;53.486;10.196;2023-05-09T10:42:46;101570.38;;;23.02;32.40
71666;BME280;59503;53.486;10.196;2023-05-09T10:45:12;101558.31;;;22.93;33.28
71666;BME280;59503;53.486;10.196;2023-05-09T10:47:42;101554.31;;;22.28;32.04
71666;BME280;59503;53.486;10.196;2023-05-09T10:50:10;101551.31;;;22.19;33.79
71666;BME280;59503;53.486;10.196;2023-05-09T10:55:58;101546.34;;;22.76;32.41
71666;BME280;59503;53.486;10.196;2023-05-09T10:58:28;101540.22;;;22.65;32.39
71666;BME280;59503;53.486;10.196;2023-05-09T11:00:55;101544.28;;;22.61;32.23
71666;BME280;59503;53.486;10.196;2023-05-09T11:03:22;101529.38;;;22.05;32.17
71666;BME280;59503;53.486;10.196;2023-05-09T11:05:50;101513.97;;;22.27;32.45
71666;BME280;59503;53.486;10.196;2023-05-09T11:08:26;101512.59;;;22.15;32.23
71666;BME280;59503;53.486;10.196;2023-05-09T11:10:53;101518.25;;;22.08;32.50
71666;BME280;59503;53.486;10.196;2023-05-09T11:13:23;101510.88;;;22.45;32.73
71666;BME280;59503;53.486;10.196;2023-05-09T11:18:23;101496.00;;;22.97;32.60
71666;BME280;59503;53.486;10.196;2023-05-09T11:20:48;101499.00;;;23.06;33.35
71666;BME280;59503;53.486;10.196;2023-05-09T11:23:19;101489.59;;;23.72;31.68
71666;BME280;59503;53.486;10.196;2023-05-09T11:25:46;101488.16;;;23.31;31.06
71666;BME280;59503;53.486;10.196;2023-05-09T11:28:25;101487.41;;;22.72;31.48
71666;BME280;59503;53.486;10.196;2023-05-09T11:30:52;101480.38;;;22.45;31.90
71666;BME280;59503;53.486;10.196;2023-05-09T11:33:26;101469.06;;;22.78;32.09
71666;BME280;59503;53.486;10.196;2023-05-09T11:36:27;101475.78;;;23.16;32.20
71666;BME280;59503;53.486;10.196;2023-05-09T11:39:07;101475.19;;;23.45;31.31
71666;BME280;59503;53.486;10.196;2023-05-09T11:41:45;101466.97;;;23.21;31.93
71666;BME280;59503;53.486;10.196;2023-05-09T11:44:20;101458.84;;;23.30;31.60
71666;BME280;59503;53.486;10.196;2023-05-09T11:46:47;101450.72;;;23.40;31.63
71666;BME280;59503;53.486;10.196;2023-05-09T11:49:13;101442.44;;;23.00;31.47
71666;BME280;59503;53.486;10.196;2023-05-09T11:51:39;101433.88;;;22.95;31.43
71666;BME280;59503;53.486;10.196;2023-05-09T11:54:05;101429.63;;;22.71;31.46
71666;BME280;59503;53.486;10.196;2023-05-09T11:56:36;101422.25;;;23.35;31.43
71666;BME280;59503;53.486;10.196;2023-05-09T11:59:02;101429.66;;;23.22;30.34
71666;BME280;59503;53.486;10.196;2023-05-09T12:01:28;101421.44;;;23.19;31.74
71666;BME280;59503;53.486;10.196;2023-05-09T12:03:54;101426.59;;;23.01;31.12
71666;BME280;59503;53.486;10.196;2023-05-09T12:06:19;101419.75;;;23.05;32.17
71666;BME280;59503;53.486;10.196;2023-05-09T12:08:45;101416.59;;;23.23;32.47
71666;BME280;59503;53.486;10.196;2023-05-09T12:11:12;101410.41;;;22.99;31.64
71666;BME280;59503;53.486;10.196;2023-05-09T12:13:56;101411.75;;;22.91;32.32
71666;BME280;59503;53.486;10.196;2023-05-09T12:16:21;101406.88;;;22.40;32.85
71666;BME280;59503;53.486;10.196;2023-05-09T12:18:51;101408.81;;;22.63;32.75
71666;BME280;59503;53.486;10.196;2023-05-09T12:21:18;101402.19;;;22.57;32.08
71666;BME280;59503;53.486;10.196;2023-05-09T12:23:44;101400.75;;;22.29;33.37
71666;BME280;59503;53.486;10.196;2023-05-09T12:26:10;101405.31;;;22.59;33.01
71666;BME280;59503;53.486;10.196;2023-05-09T12:28:35;101395.28;;;22.65;32.93
71666;BME280;59503;53.486;10.196;2023-05-09T12:31:01;101394.19;;;22.98;32.96
71666;BME280;59503;53.486;10.196;2023-05-09T12:33:27;101394.78;;;22.89;32.41
71666;BME280;59503;53.486;10.196;2023-05-09T12:36:20;101402.19;;;22.76;31.47
71666;BME280;59503;53.486;10.196;2023-05-09T12:38:55;101401.25;;;22.63;32.60
71666;BME280;59503;53.486;10.196;2023-05-09T12:41:20;101400.81;;;22.26;33.39
71666;BME280;59503;53.486;10.196;2023-05-09T12:43:47;101389.25;;;22.31;33.36
71666;BME280;59503;53.486;10.196;2023-05-09T12:46:17;101387.19;;;22.35;32.68
71666;BME280;59503;53.486;10.196;2023-05-09T12:48:43;101387.47;;;22.60;33.32
71666;BME280;59503;53.486;10.196;2023-05-09T12:51:08;101395.59;;;23.06;32.31
71666;BME280;59503;53.486;10.196;2023-05-09T12:53:40;101396.97;;;22.98;32.10
71666;BME280;59503;53.486;10.196;2023-05-09T12:56:19;101381.59;;;23.29;31.46
71666;BME280;59503;53.486;10.196;2023-05-09T12:58:52;101388.72;;;23.10;30.80
71666;BME280;59503;53.486;10.196;2023-05-09T13:01:19;101385.50;;;23.31;31.32
71666;BME280;59503;53.486;10.196;2023-05-09T13:03:50;101386.44;;;23.41;30.71
71666;BME280;59503;53.486;10.196;2023-05-09T13:06:16;101397.19;;;23.87;31.72